createdAt,value
2019-05-23T00:01:57.261Z,10.59
2019-05-23T00:04:28.386Z,10.64
2019-05-23T00:06:59.862Z,10.65
2019-05-23T00:09:30.915Z,10.71
2019-05-23T00:12:18.013Z,10.68
2019-05-23T00:14:53.521Z,10.68
2019-05-23T00:17:24.183Z,10.69
2019-05-23T00:19:53.660Z,10.70
2019-05-23T00:22:23.139Z,10.67
2019-05-23T00:24:53.623Z,10.62
2019-05-23T00:27:23.835Z,10.63
2019-05-23T00:29:54.965Z,10.60
2019-05-23T00:32:29.863Z,10.63
2019-05-23T00:34:59.319Z,10.59
2019-05-23T00:37:30.154Z,10.64
2019-05-23T00:39:59.867Z,10.64
2019-05-23T00:42:31.552Z,10.63
2019-05-23T00:45:01.671Z,10.68
2019-05-23T00:47:31.619Z,10.64
2019-05-23T00:50:03.029Z,10.67
2019-05-23T00:52:33.378Z,10.62
2019-05-23T00:55:04.965Z,10.67
2019-05-23T00:57:35.873Z,10.67
2019-05-23T01:00:11.886Z,10.64
2019-05-23T01:02:42.977Z,10.60
2019-05-23T01:05:13.332Z,10.65
2019-05-23T01:07:44.530Z,10.63
2019-05-23T01:10:16.601Z,10.60
2019-05-23T01:12:46.717Z,10.61
2019-05-23T01:15:18.996Z,10.60
2019-05-23T01:17:50.071Z,10.58
2019-05-23T01:20:24.384Z,10.58
2019-05-23T01:22:55.668Z,10.59
2019-05-23T01:25:25.823Z,10.53
2019-05-23T01:27:55.900Z,10.54
2019-05-23T01:30:45.033Z,10.50
2019-05-23T01:33:15.336Z,10.47
2019-05-23T01:35:46.050Z,10.53
2019-05-23T01:38:16.144Z,10.50
2019-05-23T01:40:46.130Z,10.48
2019-05-23T01:43:16.035Z,10.42
2019-05-23T01:45:46.377Z,10.41
2019-05-23T01:48:16.101Z,10.33
2019-05-23T01:50:46.436Z,10.27
2019-05-23T01:53:16.632Z,10.26
2019-05-23T01:55:46.921Z,10.27
2019-05-23T01:58:16.544Z,10.25
2019-05-23T02:00:47.698Z,10.26
2019-05-23T02:03:17.179Z,10.27
2019-05-23T02:05:46.923Z,10.25
2019-05-23T02:08:16.681Z,10.27
2019-05-23T02:10:46.935Z,10.22
2019-05-23T02:13:16.481Z,10.17
2019-05-23T02:15:47.322Z,10.07
2019-05-23T02:18:18.833Z,10.05
2019-05-23T02:20:48.567Z,10.06
2019-05-23T02:23:19.784Z,10.06
2019-05-23T02:25:50.034Z,10.02
2019-05-23T02:28:20.468Z,10.02
2019-05-23T02:30:50.602Z,10.02
2019-05-23T02:33:20.393Z,10.00
2019-05-23T02:35:49.851Z,9.96
2019-05-23T02:38:37.131Z,9.96
2019-05-23T02:41:08.818Z,9.91
2019-05-23T02:43:40.204Z,9.84
2019-05-23T02:46:12.899Z,9.76
2019-05-23T02:48:43.735Z,9.68
2019-05-23T02:51:16.824Z,9.61
2019-05-23T02:53:49.546Z,9.54
2019-05-23T02:56:18.964Z,9.47
2019-05-23T02:59:10.900Z,9.44
2019-05-23T03:02:21.414Z,9.43
2019-05-23T03:04:52.749Z,9.37
2019-05-23T03:07:23.544Z,9.31
2019-05-23T03:09:53.195Z,9.35
2019-05-23T03:12:25.282Z,9.39
2019-05-23T03:14:55.305Z,9.42
2019-05-23T03:17:26.469Z,9.40
2019-05-23T03:20:02.238Z,9.45
2019-05-23T03:22:36.145Z,9.50
2019-05-23T03:25:30.089Z,9.54
2019-05-23T03:27:59.650Z,9.53
2019-05-23T03:30:33.518Z,9.50
2019-05-23T03:33:04.826Z,9.54
2019-05-23T03:35:36.326Z,9.55
2019-05-23T03:38:05.917Z,9.56
2019-05-23T03:40:36.392Z,9.58
2019-05-23T03:43:08.612Z,9.59
2019-05-23T03:45:52.454Z,9.59
2019-05-23T03:48:23.564Z,9.62
2019-05-23T03:50:54.650Z,9.65
2019-05-23T03:53:25.524Z,9.64
2019-05-23T03:55:57.692Z,9.67
2019-05-23T03:58:29.950Z,9.72
2019-05-23T04:01:01.075Z,9.73
2019-05-23T04:03:30.543Z,9.78
2019-05-23T04:06:00.529Z,9.81
2019-05-23T04:08:30.423Z,9.78
2019-05-23T04:11:00.512Z,9.82
2019-05-23T04:13:30.615Z,9.89
2019-05-23T04:16:00.659Z,9.85
2019-05-23T04:18:30.877Z,9.88
2019-05-23T04:21:00.439Z,9.89
2019-05-23T04:23:30.386Z,9.90
2019-05-23T04:26:00.115Z,10.03
2019-05-23T04:28:29.599Z,10.13
2019-05-23T04:30:59.380Z,10.20
2019-05-23T04:33:29.322Z,10.27
2019-05-23T04:35:58.959Z,10.30
2019-05-23T04:38:28.514Z,10.37
2019-05-23T04:40:58.158Z,10.40
2019-05-23T04:43:28.224Z,10.57
2019-05-23T04:45:58.217Z,10.57
2019-05-23T04:48:28.472Z,10.77
2019-05-23T04:51:00.228Z,10.80
2019-05-23T04:53:29.640Z,10.75
2019-05-23T04:55:59.474Z,10.82
2019-05-23T04:58:30.213Z,10.96
2019-05-23T05:01:00.729Z,11.11
2019-05-23T05:03:31.432Z,11.20
2019-05-23T05:06:01.083Z,11.27
2019-05-23T05:08:30.744Z,11.38
2019-05-23T05:11:00.911Z,11.30
2019-05-23T05:13:30.826Z,11.33
2019-05-23T05:16:00.378Z,11.41
2019-05-23T05:18:30.151Z,11.48
2019-05-23T05:21:00.009Z,11.53
2019-05-23T05:23:29.490Z,11.61
2019-05-23T05:25:59.033Z,11.65
2019-05-23T05:28:29.044Z,11.56
2019-05-23T05:30:58.682Z,11.71
2019-05-23T05:33:28.343Z,11.85
2019-05-23T05:35:57.992Z,11.94
2019-05-23T05:38:28.869Z,12.05
2019-05-23T05:40:59.578Z,12.09
2019-05-23T05:43:29.685Z,11.94
2019-05-23T05:46:00.109Z,12.07
2019-05-23T05:48:30.409Z,12.14
2019-05-23T05:50:59.927Z,12.21
2019-05-23T05:53:29.870Z,12.32
2019-05-23T05:55:59.428Z,12.48
2019-05-23T05:58:28.893Z,12.51
2019-05-23T06:01:00.249Z,12.55
2019-05-23T06:03:29.865Z,12.62
2019-05-23T06:06:04.726Z,12.54
2019-05-23T06:08:35.890Z,12.62
2019-05-23T06:11:05.554Z,12.69
2019-05-23T06:13:35.113Z,12.67
2019-05-23T06:16:05.317Z,12.90
2019-05-23T06:18:34.768Z,12.98
2019-05-23T06:21:05.012Z,13.25
2019-05-23T06:23:34.737Z,13.21
2019-05-23T06:26:04.308Z,13.53
2019-05-23T06:28:33.844Z,13.71
2019-05-23T06:31:03.799Z,14.01
2019-05-23T06:33:34.207Z,14.01
2019-05-23T06:36:03.877Z,14.39
2019-05-23T06:38:33.402Z,14.30
2019-05-23T06:41:04.324Z,14.66
2019-05-23T06:43:35.337Z,15.02
2019-05-23T06:46:04.961Z,15.49
2019-05-23T06:48:34.933Z,16.55
2019-05-23T06:51:04.689Z,17.24
2019-05-23T06:53:34.311Z,17.87
2019-05-23T06:56:04.483Z,18.27
2019-05-23T06:58:33.945Z,18.61
2019-05-23T07:01:03.949Z,18.64
2019-05-23T07:03:42.649Z,18.66
2019-05-23T07:06:05.335Z,19.88
2019-05-23T07:08:34.804Z,20.50
2019-05-23T07:11:04.418Z,21.02
2019-05-23T07:13:34.943Z,21.15
2019-05-23T07:16:05.005Z,21.32
2019-05-23T07:18:34.572Z,20.40
2019-05-23T07:21:04.657Z,21.53
2019-05-23T07:23:34.185Z,22.61
2019-05-23T07:26:03.807Z,22.72
2019-05-23T07:28:33.451Z,22.31
2019-05-23T07:31:03.495Z,21.64
2019-05-23T07:33:33.110Z,20.83
2019-05-23T07:36:03.328Z,21.44
2019-05-23T07:38:32.839Z,21.02
2019-05-23T07:41:02.829Z,21.37
2019-05-23T07:43:32.578Z,22.68
2019-05-23T07:46:02.892Z,23.87
2019-05-23T07:48:32.393Z,23.76
2019-05-23T07:51:01.836Z,22.68
2019-05-23T07:53:32.952Z,21.66
2019-05-23T07:56:03.853Z,21.36
2019-05-23T07:58:33.601Z,21.06
2019-05-23T08:01:07.318Z,20.94
2019-05-23T08:03:39.811Z,21.08
2019-05-23T08:06:09.473Z,21.08
2019-05-23T08:08:39.002Z,21.04
2019-05-23T08:11:08.513Z,22.89
2019-05-23T08:13:38.603Z,23.69
2019-05-23T08:16:08.067Z,24.22
2019-05-23T08:18:37.708Z,25.10
2019-05-23T08:21:07.275Z,26.15
2019-05-23T08:23:37.264Z,25.03
2019-05-23T08:26:06.979Z,23.83
2019-05-23T08:28:36.721Z,22.55
2019-05-23T08:31:06.742Z,22.40
2019-05-23T08:33:36.474Z,21.34
2019-05-23T08:36:06.418Z,20.82
2019-05-23T08:38:36.286Z,20.86
2019-05-23T08:41:06.759Z,22.15
2019-05-23T08:43:36.245Z,23.66
2019-05-23T08:46:06.773Z,24.34
2019-05-23T08:48:36.507Z,25.66
2019-05-23T08:51:06.220Z,25.34
2019-05-23T08:53:35.960Z,24.74
2019-05-23T08:56:17.991Z,24.37
2019-05-23T08:58:36.606Z,25.19
2019-05-23T09:01:07.000Z,26.25
2019-05-23T09:03:37.313Z,25.39
2019-05-23T09:06:07.156Z,23.78
2019-05-23T09:08:36.625Z,23.45
2019-05-23T09:11:06.087Z,23.81
2019-05-23T09:13:35.564Z,24.76
2019-05-23T09:16:05.191Z,25.06
2019-05-23T09:18:34.724Z,25.91
2019-05-23T09:21:04.925Z,26.05
2019-05-23T09:23:34.418Z,23.87
2019-05-23T09:26:04.044Z,24.39
2019-05-23T09:28:33.578Z,25.24
2019-05-23T09:31:04.013Z,25.70
2019-05-23T09:33:33.486Z,25.41
2019-05-23T09:36:03.139Z,25.74
2019-05-23T09:38:32.605Z,26.43
2019-05-23T09:41:02.106Z,24.88
2019-05-23T09:43:31.559Z,23.60
2019-05-23T09:46:01.151Z,24.06
2019-05-23T09:48:31.079Z,25.26
2019-05-23T09:51:00.798Z,25.77
2019-05-23T09:53:30.668Z,25.91
2019-05-23T09:56:00.121Z,25.87
2019-05-23T09:58:29.613Z,26.61
2019-05-23T10:00:59.135Z,27.20
2019-05-23T10:03:28.947Z,26.46
2019-05-23T10:05:58.415Z,25.78
2019-05-23T10:08:27.913Z,25.46
2019-05-23T10:10:57.377Z,25.02
2019-05-23T10:13:38.660Z,26.25
2019-05-23T10:16:03.449Z,27.07
2019-05-23T10:18:33.038Z,27.84
2019-05-23T10:21:02.494Z,27.45
2019-05-23T10:23:32.817Z,27.99
2019-05-23T10:26:02.443Z,27.66
2019-05-23T10:28:32.216Z,27.51
2019-05-23T10:31:01.679Z,27.36
2019-05-23T10:33:31.148Z,27.09
2019-05-23T10:36:01.378Z,26.81
2019-05-23T10:38:31.185Z,26.60
2019-05-23T10:41:00.687Z,27.18
2019-05-23T10:43:30.126Z,26.67
2019-05-23T10:45:59.620Z,26.91
2019-05-23T10:48:30.705Z,27.38
2019-05-23T10:51:00.619Z,25.97
2019-05-23T10:53:30.406Z,26.83
2019-05-23T10:55:59.975Z,27.22
2019-05-23T10:58:29.913Z,26.45
2019-05-23T11:00:59.388Z,26.69
2019-05-23T11:03:28.904Z,27.53
2019-05-23T11:06:14.471Z,27.44
2019-05-23T11:08:30.762Z,26.56
2019-05-23T11:11:00.472Z,26.96
2019-05-23T11:13:30.540Z,27.19
2019-05-23T11:16:00.314Z,27.67
2019-05-23T11:18:30.121Z,27.83
2019-05-23T11:20:59.597Z,27.08
2019-05-23T11:23:30.688Z,25.77
2019-05-23T11:26:01.557Z,24.76
2019-05-23T11:28:33.306Z,25.66
2019-05-23T11:31:03.386Z,26.64
2019-05-23T11:33:32.867Z,27.35
2019-05-23T11:36:02.707Z,28.01
2019-05-23T11:38:32.409Z,27.56
2019-05-23T11:41:02.224Z,27.38
2019-05-23T11:43:31.746Z,26.34
2019-05-23T11:46:02.931Z,25.84
2019-05-23T11:48:33.128Z,27.15
2019-05-23T11:51:03.166Z,27.99
2019-05-23T11:53:32.680Z,27.38
2019-05-23T11:56:02.468Z,28.97
2019-05-23T11:58:32.940Z,28.84
2019-05-23T12:01:11.036Z,28.20
2019-05-23T12:03:41.556Z,28.99
2019-05-23T12:06:11.102Z,28.66
2019-05-23T12:08:40.645Z,26.86
2019-05-23T12:11:10.382Z,27.18
2019-05-23T12:13:39.841Z,28.37
2019-05-23T12:16:10.907Z,27.82
2019-05-23T12:18:40.433Z,26.63
2019-05-23T12:21:10.081Z,26.20
2019-05-23T12:23:39.599Z,25.61
2019-05-23T12:26:09.072Z,25.54
2019-05-23T12:28:38.562Z,26.40
2019-05-23T12:31:08.276Z,26.91
2019-05-23T12:33:37.730Z,24.91
2019-05-23T12:36:07.201Z,25.23
2019-05-23T12:38:36.676Z,26.70
2019-05-23T12:41:07.570Z,27.98
2019-05-23T12:43:37.105Z,28.92
2019-05-23T12:46:06.641Z,28.95
2019-05-23T12:48:47.078Z,29.02
2019-05-23T12:51:20.785Z,28.47
2019-05-23T12:53:50.246Z,27.36
2019-05-23T12:56:19.702Z,27.25
2019-05-23T12:58:49.162Z,28.13
2019-05-23T13:01:18.659Z,28.96
2019-05-23T13:03:48.111Z,28.50
2019-05-23T13:06:17.656Z,28.85
2019-05-23T13:08:47.130Z,27.44
2019-05-23T13:11:17.039Z,25.51
2019-05-23T13:13:46.489Z,25.23
2019-05-23T13:16:15.952Z,26.69
2019-05-23T13:18:45.755Z,27.93
2019-05-23T13:21:15.277Z,28.75
2019-05-23T13:23:44.892Z,26.43
2019-05-23T13:26:14.359Z,26.15
2019-05-23T13:28:43.915Z,26.52
2019-05-23T13:31:13.367Z,27.92
2019-05-23T13:33:43.113Z,28.58
2019-05-23T13:36:12.559Z,27.88
2019-05-23T13:38:42.429Z,27.00
2019-05-23T13:41:11.895Z,26.99
2019-05-23T13:43:41.363Z,27.21
2019-05-23T13:46:11.354Z,28.23
2019-05-23T13:48:41.093Z,26.79
2019-05-23T13:51:10.543Z,25.09
2019-05-23T13:53:40.013Z,24.19
2019-05-23T13:56:09.471Z,25.19
2019-05-23T13:58:39.014Z,24.50
2019-05-23T14:01:09.832Z,24.97
2019-05-23T14:03:40.243Z,25.56
2019-05-23T14:06:09.863Z,25.86
2019-05-23T14:08:39.328Z,25.35
2019-05-23T14:11:08.945Z,25.48
2019-05-23T14:13:38.861Z,24.50
2019-05-23T14:16:09.412Z,24.22
2019-05-23T14:18:39.357Z,24.70
2019-05-23T14:21:09.167Z,25.10
2019-05-23T14:23:38.634Z,25.04
2019-05-23T14:26:08.999Z,25.07
2019-05-23T14:28:38.737Z,25.70
2019-05-23T14:31:15.935Z,25.06
2019-05-23T14:33:55.807Z,24.50
2019-05-23T14:36:32.327Z,23.55
2019-05-23T14:39:02.702Z,23.18
2019-05-23T14:41:44.915Z,23.73
2019-05-23T14:44:05.282Z,24.68
2019-05-23T14:46:39.141Z,24.34
2019-05-23T14:49:16.246Z,24.76
2019-05-23T14:51:47.414Z,25.99
2019-05-23T14:54:33.275Z,25.88
2019-05-23T14:57:03.076Z,26.07
2019-05-23T14:59:32.882Z,25.46
2019-05-23T15:02:03.197Z,25.38
2019-05-23T15:04:32.658Z,25.58
2019-05-23T15:07:02.735Z,25.53
2019-05-23T15:09:32.832Z,25.71
2019-05-23T15:12:02.331Z,25.56
2019-05-23T15:14:31.789Z,25.45
2019-05-23T15:17:01.253Z,24.43
2019-05-23T15:19:41.911Z,23.85
2019-05-23T15:22:02.240Z,23.48
2019-05-23T15:24:35.126Z,23.23
2019-05-23T15:27:04.975Z,22.92
2019-05-23T15:29:34.529Z,23.31
2019-05-23T15:32:04.044Z,22.88
2019-05-23T15:34:35.111Z,22.47
2019-05-23T15:37:05.232Z,22.20
2019-05-23T15:39:35.446Z,22.30
2019-05-23T15:42:05.152Z,22.10
2019-05-23T15:44:34.744Z,21.80
2019-05-23T15:47:04.781Z,22.25
2019-05-23T15:49:34.905Z,22.31
2019-05-23T15:52:14.895Z,22.41
2019-05-23T15:54:55.131Z,22.87
2019-05-23T15:57:32.438Z,23.20
2019-05-23T16:00:09.254Z,22.82
2019-05-23T16:02:49.406Z,22.04
2019-05-23T16:05:19.494Z,21.38
2019-05-23T16:07:50.216Z,21.30
2019-05-23T16:10:20.534Z,21.08
2019-05-23T16:12:50.099Z,20.82
2019-05-23T16:15:19.694Z,20.86
2019-05-23T16:17:49.139Z,20.86
2019-05-23T16:20:19.504Z,20.92
2019-05-23T16:22:49.077Z,21.14
2019-05-23T16:25:18.922Z,20.99
2019-05-23T16:27:49.014Z,20.93
2019-05-23T16:30:18.533Z,21.17
2019-05-23T16:32:48.064Z,20.97
2019-05-23T16:35:17.596Z,21.02
2019-05-23T16:37:47.010Z,21.19
2019-05-23T16:40:16.693Z,21.40
2019-05-23T16:42:46.163Z,21.41
2019-05-23T16:45:15.800Z,21.88
2019-05-23T16:47:45.306Z,22.28
2019-05-23T16:50:15.288Z,22.39
2019-05-23T16:52:44.845Z,22.59
2019-05-23T16:55:17.872Z,22.11
2019-05-23T16:57:50.636Z,22.22
2019-05-23T17:00:37.639Z,22.16
2019-05-23T17:03:11.198Z,22.11
2019-05-23T17:05:45.276Z,22.18
2019-05-23T17:08:22.187Z,22.06
2019-05-23T17:11:02.281Z,21.85
2019-05-23T17:13:42.338Z,21.56
2019-05-23T17:16:13.524Z,21.75
2019-05-23T17:18:50.452Z,21.69
2019-05-23T17:21:24.268Z,21.62
2019-05-23T17:23:58.364Z,21.02
2019-05-23T17:26:29.497Z,20.77
2019-05-23T17:29:01.293Z,20.58
2019-05-23T17:31:32.729Z,20.56
2019-05-23T17:34:02.196Z,20.25
2019-05-23T17:36:32.063Z,20.20
2019-05-23T17:39:01.897Z,20.23
2019-05-23T17:41:31.374Z,20.09
2019-05-23T17:44:01.101Z,19.95
2019-05-23T17:46:30.728Z,19.70
2019-05-23T17:49:00.454Z,19.54
2019-05-23T17:51:29.913Z,19.37
2019-05-23T17:53:59.636Z,19.17
2019-05-23T17:56:29.434Z,18.92
2019-05-23T17:58:58.890Z,18.75
2019-05-23T18:01:29.910Z,18.49
2019-05-23T18:03:59.532Z,18.36
2019-05-23T18:06:28.987Z,18.20
2019-05-23T18:08:58.636Z,18.08
2019-05-23T18:11:28.125Z,17.97
2019-05-23T18:13:57.978Z,17.88
2019-05-23T18:16:27.726Z,17.78
2019-05-23T18:18:57.266Z,17.68
2019-05-23T18:21:26.811Z,17.53
2019-05-23T18:23:56.350Z,17.37
2019-05-23T18:26:26.548Z,17.24
2019-05-23T18:28:56.417Z,17.08
2019-05-23T18:31:27.519Z,16.92
2019-05-23T18:33:57.999Z,16.76
2019-05-23T18:36:27.999Z,16.61
2019-05-23T18:38:57.479Z,16.43
2019-05-23T18:41:27.842Z,16.27
2019-05-23T18:43:57.793Z,16.09
2019-05-23T18:46:31.576Z,15.91
2019-05-23T18:49:02.189Z,15.76
2019-05-23T18:51:32.089Z,15.58
2019-05-23T18:54:02.078Z,15.45
2019-05-23T18:56:31.578Z,15.26
2019-05-23T18:59:01.821Z,15.14
2019-05-23T19:01:32.795Z,14.99
2019-05-23T19:04:02.611Z,14.88
2019-05-23T19:06:32.267Z,14.71
2019-05-23T19:09:02.127Z,14.59
2019-05-23T19:11:31.920Z,14.45
2019-05-23T19:14:01.547Z,14.33
2019-05-23T19:16:33.000Z,14.15
2019-05-23T19:19:03.552Z,13.99
2019-05-23T19:21:34.361Z,13.86
2019-05-23T19:24:04.798Z,13.77
2019-05-23T19:26:35.034Z,13.68
2019-05-23T19:29:06.816Z,13.57
2019-05-23T19:31:36.325Z,13.44
2019-05-23T19:34:06.009Z,13.36
2019-05-23T19:36:35.636Z,13.20
2019-05-23T19:39:06.367Z,13.07
2019-05-23T19:41:38.174Z,12.93
2019-05-23T19:44:07.971Z,12.82
2019-05-23T19:46:37.441Z,12.72
2019-05-23T19:49:06.965Z,12.75
2019-05-23T19:51:36.414Z,12.76
2019-05-23T19:54:06.771Z,12.64
2019-05-23T19:56:37.210Z,12.56
2019-05-23T19:59:06.925Z,12.48
2019-05-23T20:01:54.772Z,12.40
2019-05-23T20:04:30.771Z,12.32
2019-05-23T20:06:57.310Z,12.22
2019-05-23T20:09:27.013Z,12.16
2019-05-23T20:11:57.060Z,12.08
2019-05-23T20:14:26.534Z,12.01
2019-05-23T20:16:55.982Z,11.94
2019-05-23T20:19:25.439Z,11.88
2019-05-23T20:21:55.182Z,11.81
2019-05-23T20:24:25.013Z,11.72
2019-05-23T20:26:54.457Z,11.60
2019-05-23T20:29:24.014Z,11.52
2019-05-23T20:31:53.543Z,11.41
2019-05-23T20:34:23.151Z,11.26
2019-05-23T20:36:52.620Z,11.16
2019-05-23T20:39:23.980Z,11.12
2019-05-23T20:42:09.970Z,11.10
2019-05-23T20:44:24.693Z,11.11
2019-05-23T20:46:54.587Z,11.12
2019-05-23T20:49:27.058Z,11.05
2019-05-23T20:51:55.468Z,11.00
2019-05-23T20:54:25.229Z,10.99
2019-05-23T20:56:54.694Z,10.95
2019-05-23T20:59:24.391Z,10.94
2019-05-23T21:01:54.217Z,10.87
2019-05-23T21:04:23.712Z,10.81
2019-05-23T21:06:54.961Z,10.78
2019-05-23T21:09:24.420Z,10.73
2019-05-23T21:11:53.868Z,10.65
2019-05-23T21:14:23.336Z,10.55
2019-05-23T21:16:53.121Z,10.51
2019-05-23T21:19:22.579Z,10.45
2019-05-23T21:21:52.041Z,10.40
2019-05-23T21:24:21.486Z,10.30
2019-05-23T21:26:50.947Z,10.25
2019-05-23T21:29:20.474Z,10.29
2019-05-23T21:31:49.937Z,10.26
2019-05-23T21:34:22.089Z,10.22
2019-05-23T21:36:50.689Z,10.10
2019-05-23T21:39:21.027Z,10.01
2019-05-23T21:41:50.496Z,9.95
2019-05-23T21:44:19.951Z,9.94
2019-05-23T21:46:49.435Z,9.91
2019-05-23T21:49:18.901Z,9.88
2019-05-23T21:51:51.606Z,9.89
2019-05-23T21:54:19.532Z,9.95
2019-05-23T21:56:48.995Z,9.99
2019-05-23T21:59:18.440Z,9.98
2019-05-23T22:01:49.545Z,9.97
2019-05-23T22:04:23.579Z,9.95
2019-05-23T22:06:55.815Z,9.91
2019-05-23T22:09:25.756Z,9.92
2019-05-23T22:11:55.833Z,9.86
2019-05-23T22:14:25.469Z,9.88
2019-05-23T22:16:54.899Z,9.86
2019-05-23T22:19:24.921Z,9.85
2019-05-23T22:21:54.391Z,9.85
2019-05-23T22:24:24.007Z,9.87
2019-05-23T22:26:53.454Z,9.89
2019-05-23T22:29:22.888Z,9.85
2019-05-23T22:31:56.253Z,9.85
2019-05-23T22:34:34.944Z,9.81
2019-05-23T22:37:06.173Z,9.83
2019-05-23T22:39:35.619Z,9.81
2019-05-23T22:42:06.347Z,9.77
2019-05-23T22:44:35.794Z,9.77
2019-05-23T22:47:05.393Z,9.78
2019-05-23T22:49:34.823Z,9.75
2019-05-23T22:52:04.622Z,9.75
2019-05-23T22:54:34.083Z,9.74
2019-05-23T22:57:03.569Z,9.71
2019-05-23T22:59:33.007Z,9.66
2019-05-23T23:02:03.737Z,9.59
2019-05-23T23:04:33.193Z,9.56
2019-05-23T23:07:02.945Z,9.53
2019-05-23T23:09:32.470Z,9.48
2019-05-23T23:12:02.098Z,9.45
2019-05-23T23:14:31.548Z,9.45
2019-05-23T23:17:01.005Z,9.41
2019-05-23T23:19:30.452Z,9.35
2019-05-23T23:22:00.066Z,9.38
2019-05-23T23:24:29.560Z,9.42
2019-05-23T23:26:59.012Z,9.43
2019-05-23T23:29:28.466Z,9.46
2019-05-23T23:31:57.957Z,9.47
2019-05-23T23:34:27.812Z,9.43
2019-05-23T23:36:57.432Z,9.42
2019-05-23T23:39:26.878Z,9.38
2019-05-23T23:41:56.361Z,9.30
2019-05-23T23:44:34.273Z,9.25
2019-05-23T23:47:22.979Z,9.23
2019-05-23T23:50:10.933Z,9.21
2019-05-23T23:52:58.483Z,9.13
2019-05-23T23:55:46.001Z,9.12
2019-05-23T23:58:15.603Z,9.09
